sensor_id;sensor_type;location;lat;lon;timestamp;temperature;humidity
9486;DHT22;4781;48.776;9.200;2023-04-03T00:01:34;4.00;99.90
9486;DHT22;4781;48.776;9.200;2023-04-03T00:04:05;4.00;99.90
9486;DHT22;4781;48.776;9.200;2023-04-03T00:06:34;4.00;99.90
9486;DHT22;4781;48.776;9.200;2023-04-03T00:09:02;4.00;99.90
9486;DHT22;4781;48.776;9.200;2023-04-03T00:11:31;4.00;99.90
9486;DHT22;4781;48.776;9.200;2023-04-03T00:13:59;3.90;99.90
9486;DHT22;4781;48.776;9.200;2023-04-03T00:16:27;4.00;99.90
9486;DHT22;4781;48.776;9.200;2023-04-03T00:18:56;4.00;99.90
9486;DHT22;4781;48.776;9.200;2023-04-03T00:21:24;3.90;99.90
9486;DHT22;4781;48.776;9.200;2023-04-03T00:23:52;3.90;99.90
9486;DHT22;4781;48.776;9.200;2023-04-03T00:26:21;3.90;99.90
9486;DHT22;4781;48.776;9.200;2023-04-03T00:28:49;3.90;99.90
9486;DHT22;4781;48.776;9.200;2023-04-03T00:31:18;4.00;99.90
9486;DHT22;4781;48.776;9.200;2023-04-03T00:33:46;4.00;99.90
9486;DHT22;4781;48.776;9.200;2023-04-03T00:36:15;4.00;99.90
9486;DHT22;4781;48.776;9.200;2023-04-03T00:38:43;3.90;99.90
9486;DHT22;4781;48.776;9.200;2023-04-03T00:41:12;3.90;99.90
9486;DHT22;4781;48.776;9.200;2023-04-03T00:43:40;3.90;99.90
9486;DHT22;4781;48.776;9.200;2023-04-03T00:46:09;3.90;99.90
9486;DHT22;4781;48.776;9.200;2023-04-03T00:48:47;3.90;99.90
9486;DHT22;4781;48.776;9.200;2023-04-03T00:51:18;3.90;99.90
9486;DHT22;4781;48.776;9.200;2023-04-03T00:53:50;3.90;99.90
9486;DHT22;4781;48.776;9.200;2023-04-03T00:56:25;3.90;99.90
9486;DHT22;4781;48.776;9.200;2023-04-03T00:58:58;3.90;99.90
9486;DHT22;4781;48.776;9.200;2023-04-03T01:01:29;3.90;99.90
9486;DHT22;4781;48.776;9.200;2023-04-03T01:03:59;3.90;99.90
9486;DHT22;4781;48.776;9.200;2023-04-03T01:06:35;3.90;99.90
9486;DHT22;4781;48.776;9.200;2023-04-03T01:09:05;3.90;99.90
9486;DHT22;4781;48.776;9.200;2023-04-03T01:11:33;3.90;99.90
9486;DHT22;4781;48.776;9.200;2023-04-03T01:14:02;3.90;99.90
9486;DHT22;4781;48.776;9.200;2023-04-03T01:16:32;3.90;99.90
9486;DHT22;4781;48.776;9.200;2023-04-03T01:19:01;3.90;99.90
9486;DHT22;4781;48.776;9.200;2023-04-03T01:24:36;3.80;99.90
9486;DHT22;4781;48.776;9.200;2023-04-03T01:27:06;3.80;99.90
9486;DHT22;4781;48.776;9.200;2023-04-03T01:29:37;3.80;99.90
9486;DHT22;4781;48.776;9.200;2023-04-03T01:32:07;3.80;99.90
9486;DHT22;4781;48.776;9.200;2023-04-03T01:34:36;3.80;99.90
9486;DHT22;4781;48.776;9.200;2023-04-03T01:37:04;3.80;99.90
9486;DHT22;4781;48.776;9.200;2023-04-03T01:39:33;3.80;99.90
9486;DHT22;4781;48.776;9.200;2023-04-03T01:42:01;3.80;99.90
9486;DHT22;4781;48.776;9.200;2023-04-03T01:44:31;3.80;99.90
9486;DHT22;4781;48.776;9.200;2023-04-03T01:46:59;3.80;99.90
9486;DHT22;4781;48.776;9.200;2023-04-03T01:49:28;3.80;99.90
9486;DHT22;4781;48.776;9.200;2023-04-03T01:51:56;3.80;99.90
9486;DHT22;4781;48.776;9.200;2023-04-03T01:54:25;3.80;99.90
9486;DHT22;4781;48.776;9.200;2023-04-03T01:56:53;3.80;99.90
9486;DHT22;4781;48.776;9.200;2023-04-03T01:59:22;3.80;99.90
9486;DHT22;4781;48.776;9.200;2023-04-03T02:01:50;3.80;99.90
9486;DHT22;4781;48.776;9.200;2023-04-03T02:04:18;3.80;99.90
9486;DHT22;4781;48.776;9.200;2023-04-03T02:06:47;3.70;99.90
9486;DHT22;4781;48.776;9.200;2023-04-03T02:09:15;3.70;99.90
9486;DHT22;4781;48.776;9.200;2023-04-03T02:11:43;3.70;99.90
9486;DHT22;4781;48.776;9.200;2023-04-03T02:14:12;3.70;99.90
9486;DHT22;4781;48.776;9.200;2023-04-03T02:16:40;3.70;99.90
9486;DHT22;4781;48.776;9.200;2023-04-03T02:19:09;3.70;99.90
9486;DHT22;4781;48.776;9.200;2023-04-03T02:21:37;3.70;99.90
9486;DHT22;4781;48.776;9.200;2023-04-03T02:24:06;3.70;99.90
9486;DHT22;4781;48.776;9.200;2023-04-03T02:26:34;3.70;99.90
9486;DHT22;4781;48.776;9.200;2023-04-03T02:29:02;3.70;99.90
9486;DHT22;4781;48.776;9.200;2023-04-03T02:31:31;3.70;99.90
9486;DHT22;4781;48.776;9.200;2023-04-03T02:33:59;3.70;99.90
9486;DHT22;4781;48.776;9.200;2023-04-03T02:36:28;3.70;99.90
9486;DHT22;4781;48.776;9.200;2023-04-03T02:38:56;3.70;99.90
9486;DHT22;4781;48.776;9.200;2023-04-03T02:41:25;3.70;99.90
9486;DHT22;4781;48.776;9.200;2023-04-03T02:43:55;3.70;99.90
9486;DHT22;4781;48.776;9.200;2023-04-03T02:46:23;3.70;99.90
9486;DHT22;4781;48.776;9.200;2023-04-03T02:48:51;3.70;99.90
9486;DHT22;4781;48.776;9.200;2023-04-03T02:51:20;3.60;99.90
9486;DHT22;4781;48.776;9.200;2023-04-03T02:53:49;3.60;99.90
9486;DHT22;4781;48.776;9.200;2023-04-03T02:56:18;3.70;99.90
9486;DHT22;4781;48.776;9.200;2023-04-03T02:58:47;3.70;99.90
9486;DHT22;4781;48.776;9.200;2023-04-03T03:01:15;3.70;99.90
9486;DHT22;4781;48.776;9.200;2023-04-03T03:03:44;3.70;99.90
9486;DHT22;4781;48.776;9.200;2023-04-03T03:06:14;3.60;99.90
9486;DHT22;4781;48.776;9.200;2023-04-03T03:08:43;3.60;99.90
9486;DHT22;4781;48.776;9.200;2023-04-03T03:11:12;3.70;99.90
9486;DHT22;4781;48.776;9.200;2023-04-03T03:13:41;3.60;99.90
9486;DHT22;4781;48.776;9.200;2023-04-03T03:16:09;3.60;99.90
9486;DHT22;4781;48.776;9.200;2023-04-03T03:18:38;3.60;99.90
9486;DHT22;4781;48.776;9.200;2023-04-03T03:21:06;3.60;99.90
9486;DHT22;4781;48.776;9.200;2023-04-03T03:23:36;3.60;99.90
9486;DHT22;4781;48.776;9.200;2023-04-03T03:26:07;3.60;99.90
9486;DHT22;4781;48.776;9.200;2023-04-03T03:28:38;3.60;99.90
9486;DHT22;4781;48.776;9.200;2023-04-03T03:31:08;3.60;99.90
9486;DHT22;4781;48.776;9.200;2023-04-03T03:33:37;3.60;99.90
9486;DHT22;4781;48.776;9.200;2023-04-03T03:36:05;3.60;99.90
9486;DHT22;4781;48.776;9.200;2023-04-03T03:38:34;3.60;99.90
9486;DHT22;4781;48.776;9.200;2023-04-03T03:41:02;3.60;99.90
9486;DHT22;4781;48.776;9.200;2023-04-03T03:43:31;3.60;99.90
9486;DHT22;4781;48.776;9.200;2023-04-03T03:45:59;3.60;99.90
9486;DHT22;4781;48.776;9.200;2023-04-03T03:48:27;3.60;99.90
9486;DHT22;4781;48.776;9.200;2023-04-03T03:50:56;3.60;99.90
9486;DHT22;4781;48.776;9.200;2023-04-03T03:53:24;3.60;99.90
9486;DHT22;4781;48.776;9.200;2023-04-03T03:55:53;3.60;99.90
9486;DHT22;4781;48.776;9.200;2023-04-03T03:58:21;3.60;99.90
9486;DHT22;4781;48.776;9.200;2023-04-03T04:00:50;3.60;99.90
9486;DHT22;4781;48.776;9.200;2023-04-03T04:03:18;3.60;99.90
9486;DHT22;4781;48.776;9.200;2023-04-03T04:05:47;3.60;99.90
9486;DHT22;4781;48.776;9.200;2023-04-03T04:08:15;3.60;99.90
9486;DHT22;4781;48.776;9.200;2023-04-03T04:10:44;3.60;99.90
9486;DHT22;4781;48.776;9.200;2023-04-03T04:13:12;3.60;99.90
9486;DHT22;4781;48.776;9.200;2023-04-03T04:15:40;3.60;99.90
9486;DHT22;4781;48.776;9.200;2023-04-03T04:18:10;3.60;99.90
9486;DHT22;4781;48.776;9.200;2023-04-03T04:20:38;3.60;99.90
9486;DHT22;4781;48.776;9.200;2023-04-03T04:23:06;3.60;99.90
9486;DHT22;4781;48.776;9.200;2023-04-03T04:25:35;3.60;99.90
9486;DHT22;4781;48.776;9.200;2023-04-03T04:28:03;3.60;99.90
9486;DHT22;4781;48.776;9.200;2023-04-03T04:30:32;3.60;99.90
9486;DHT22;4781;48.776;9.200;2023-04-03T04:33:01;3.60;99.90
9486;DHT22;4781;48.776;9.200;2023-04-03T04:35:29;3.60;99.90
9486;DHT22;4781;48.776;9.200;2023-04-03T04:37:57;3.60;99.90
9486;DHT22;4781;48.776;9.200;2023-04-03T04:40:27;3.60;99.90
9486;DHT22;4781;48.776;9.200;2023-04-03T04:42:56;3.60;99.90
9486;DHT22;4781;48.776;9.200;2023-04-03T04:45:24;3.60;99.90
9486;DHT22;4781;48.776;9.200;2023-04-03T04:47:55;3.60;99.90
9486;DHT22;4781;48.776;9.200;2023-04-03T04:50:23;3.60;99.90
9486;DHT22;4781;48.776;9.200;2023-04-03T04:52:52;3.60;99.90
9486;DHT22;4781;48.776;9.200;2023-04-03T04:55:22;3.60;99.90
9486;DHT22;4781;48.776;9.200;2023-04-03T04:57:50;3.60;99.90
9486;DHT22;4781;48.776;9.200;2023-04-03T05:00:19;3.70;99.90
9486;DHT22;4781;48.776;9.200;2023-04-03T05:02:48;3.60;99.90
9486;DHT22;4781;48.776;9.200;2023-04-03T05:05:16;3.60;99.90
9486;DHT22;4781;48.776;9.200;2023-04-03T05:07:45;3.70;99.90
9486;DHT22;4781;48.776;9.200;2023-04-03T05:10:13;3.70;99.90
9486;DHT22;4781;48.776;9.200;2023-04-03T05:12:42;3.60;99.90
9486;DHT22;4781;48.776;9.200;2023-04-03T05:15:10;3.60;99.90
9486;DHT22;4781;48.776;9.200;2023-04-03T05:17:39;3.60;99.90
9486;DHT22;4781;48.776;9.200;2023-04-03T05:20:08;3.60;99.90
9486;DHT22;4781;48.776;9.200;2023-04-03T05:22:37;3.60;99.90
9486;DHT22;4781;48.776;9.200;2023-04-03T05:25:06;3.60;99.90
9486;DHT22;4781;48.776;9.200;2023-04-03T05:27:35;3.70;99.90
9486;DHT22;4781;48.776;9.200;2023-04-03T05:30:05;3.70;99.90
9486;DHT22;4781;48.776;9.200;2023-04-03T05:32:34;3.70;99.90
9486;DHT22;4781;48.776;9.200;2023-04-03T05:35:03;3.70;99.90
9486;DHT22;4781;48.776;9.200;2023-04-03T05:37:33;3.70;99.90
9486;DHT22;4781;48.776;9.200;2023-04-03T05:40:03;3.70;99.90
9486;DHT22;4781;48.776;9.200;2023-04-03T05:42:33;3.70;99.90
9486;DHT22;4781;48.776;9.200;2023-04-03T05:45:01;3.70;99.90
9486;DHT22;4781;48.776;9.200;2023-04-03T05:47:30;3.60;99.90
9486;DHT22;4781;48.776;9.200;2023-04-03T05:49:58;3.60;99.90
9486;DHT22;4781;48.776;9.200;2023-04-03T05:52:33;3.60;99.90
9486;DHT22;4781;48.776;9.200;2023-04-03T05:55:02;3.60;99.90
9486;DHT22;4781;48.776;9.200;2023-04-03T05:57:31;3.60;99.90
9486;DHT22;4781;48.776;9.200;2023-04-03T06:00:00;3.60;99.90
9486;DHT22;4781;48.776;9.200;2023-04-03T06:02:28;3.60;99.90
9486;DHT22;4781;48.776;9.200;2023-04-03T06:04:57;3.70;99.90
9486;DHT22;4781;48.776;9.200;2023-04-03T06:07:26;3.70;99.90
9486;DHT22;4781;48.776;9.200;2023-04-03T06:09:56;3.70;99.90
9486;DHT22;4781;48.776;9.200;2023-04-03T06:12:25;3.70;99.90
9486;DHT22;4781;48.776;9.200;2023-04-03T06:14:55;3.70;99.90
9486;DHT22;4781;48.776;9.200;2023-04-03T06:17:23;3.70;99.90
9486;DHT22;4781;48.776;9.200;2023-04-03T06:19:53;3.70;99.90
9486;DHT22;4781;48.776;9.200;2023-04-03T06:22:22;3.70;99.90
9486;DHT22;4781;48.776;9.200;2023-04-03T06:24:52;3.80;99.90
9486;DHT22;4781;48.776;9.200;2023-04-03T06:27:21;3.80;99.90
9486;DHT22;4781;48.776;9.200;2023-04-03T06:29:50;3.90;99.90
9486;DHT22;4781;48.776;9.200;2023-04-03T06:32:18;3.80;99.90
9486;DHT22;4781;48.776;9.200;2023-04-03T06:34:46;3.90;99.90
9486;DHT22;4781;48.776;9.200;2023-04-03T06:37:17;3.90;99.90
9486;DHT22;4781;48.776;9.200;2023-04-03T06:39:48;3.90;99.90
9486;DHT22;4781;48.776;9.200;2023-04-03T06:42:16;3.90;99.90
9486;DHT22;4781;48.776;9.200;2023-04-03T06:44:45;3.90;99.90
9486;DHT22;4781;48.776;9.200;2023-04-03T06:47:14;4.00;99.90
9486;DHT22;4781;48.776;9.200;2023-04-03T06:49:43;4.00;99.90
9486;DHT22;4781;48.776;9.200;2023-04-03T06:52:12;4.00;99.90
9486;DHT22;4781;48.776;9.200;2023-04-03T06:54:41;4.00;99.90
9486;DHT22;4781;48.776;9.200;2023-04-03T06:57:10;4.10;99.90
9486;DHT22;4781;48.776;9.200;2023-04-03T06:59:38;4.10;99.90
9486;DHT22;4781;48.776;9.200;2023-04-03T07:02:06;4.10;99.90
9486;DHT22;4781;48.776;9.200;2023-04-03T07:04:37;4.20;99.90
9486;DHT22;4781;48.776;9.200;2023-04-03T07:07:06;4.20;99.90
9486;DHT22;4781;48.776;9.200;2023-04-03T07:09:35;4.20;99.90
9486;DHT22;4781;48.776;9.200;2023-04-03T07:12:03;4.10;99.90
9486;DHT22;4781;48.776;9.200;2023-04-03T07:14:34;4.20;99.90
9486;DHT22;4781;48.776;9.200;2023-04-03T07:17:03;4.20;99.90
9486;DHT22;4781;48.776;9.200;2023-04-03T07:19:31;4.30;99.90
9486;DHT22;4781;48.776;9.200;2023-04-03T07:21:59;4.30;99.90
9486;DHT22;4781;48.776;9.200;2023-04-03T07:24:28;4.30;99.90
9486;DHT22;4781;48.776;9.200;2023-04-03T07:26:56;4.30;99.90
9486;DHT22;4781;48.776;9.200;2023-04-03T07:29:25;4.30;99.90
9486;DHT22;4781;48.776;9.200;2023-04-03T07:31:53;4.40;99.90
9486;DHT22;4781;48.776;9.200;2023-04-03T07:34:22;4.40;99.90
9486;DHT22;4781;48.776;9.200;2023-04-03T07:36:51;4.40;99.90
9486;DHT22;4781;48.776;9.200;2023-04-03T07:39:19;4.50;99.90
9486;DHT22;4781;48.776;9.200;2023-04-03T07:41:48;4.50;99.90
9486;DHT22;4781;48.776;9.200;2023-04-03T07:44:16;4.60;99.90
9486;DHT22;4781;48.776;9.200;2023-04-03T07:46:45;4.60;99.90
9486;DHT22;4781;48.776;9.200;2023-04-03T07:49:15;4.70;99.90
9486;DHT22;4781;48.776;9.200;2023-04-03T07:51:45;4.70;99.90
9486;DHT22;4781;48.776;9.200;2023-04-03T07:54:15;4.80;99.90
9486;DHT22;4781;48.776;9.200;2023-04-03T07:56:48;4.90;99.90
9486;DHT22;4781;48.776;9.200;2023-04-03T07:59:16;4.90;99.90
9486;DHT22;4781;48.776;9.200;2023-04-03T08:01:45;5.00;99.90
9486;DHT22;4781;48.776;9.200;2023-04-03T08:04:13;5.00;99.90
9486;DHT22;4781;48.776;9.200;2023-04-03T08:06:42;5.10;99.90
9486;DHT22;4781;48.776;9.200;2023-04-03T08:09:10;5.20;99.90
9486;DHT22;4781;48.776;9.200;2023-04-03T08:11:39;5.20;99.90
9486;DHT22;4781;48.776;9.200;2023-04-03T08:14:07;5.20;99.90
9486;DHT22;4781;48.776;9.200;2023-04-03T08:16:37;5.20;99.90
9486;DHT22;4781;48.776;9.200;2023-04-03T08:19:06;5.20;99.90
9486;DHT22;4781;48.776;9.200;2023-04-03T08:21:34;5.20;99.90
9486;DHT22;4781;48.776;9.200;2023-04-03T08:24:03;5.20;99.90
9486;DHT22;4781;48.776;9.200;2023-04-03T08:26:32;5.30;99.90
9486;DHT22;4781;48.776;9.200;2023-04-03T08:29:01;5.30;99.90
9486;DHT22;4781;48.776;9.200;2023-04-03T08:31:29;5.30;99.90
9486;DHT22;4781;48.776;9.200;2023-04-03T08:33:58;5.50;99.90
9486;DHT22;4781;48.776;9.200;2023-04-03T08:36:28;5.30;99.90
9486;DHT22;4781;48.776;9.200;2023-04-03T08:38:57;5.30;99.90
9486;DHT22;4781;48.776;9.200;2023-04-03T08:41:45;5.30;99.90
9486;DHT22;4781;48.776;9.200;2023-04-03T08:47:28;5.40;99.90
9486;DHT22;4781;48.776;9.200;2023-04-03T08:50:10;5.40;99.90
9486;DHT22;4781;48.776;9.200;2023-04-03T08:52:51;5.50;99.90
9486;DHT22;4781;48.776;9.200;2023-04-03T08:55:29;5.60;99.90
9486;DHT22;4781;48.776;9.200;2023-04-03T08:58:04;5.60;99.90
9486;DHT22;4781;48.776;9.200;2023-04-03T09:03:20;5.70;99.90
9486;DHT22;4781;48.776;9.200;2023-04-03T09:06:03;5.70;99.90
9486;DHT22;4781;48.776;9.200;2023-04-03T09:16:57;5.90;99.90
9486;DHT22;4781;48.776;9.200;2023-04-03T09:22:28;5.90;99.90
9486;DHT22;4781;48.776;9.200;2023-04-03T09:25:07;5.80;99.90
9486;DHT22;4781;48.776;9.200;2023-04-03T09:27:32;5.90;99.90
9486;DHT22;4781;48.776;9.200;2023-04-03T09:30:00;5.90;99.90
9486;DHT22;4781;48.776;9.200;2023-04-03T09:32:31;5.90;99.90
9486;DHT22;4781;48.776;9.200;2023-04-03T09:38:00;6.00;99.90
9486;DHT22;4781;48.776;9.200;2023-04-03T09:40:36;6.00;99.90
9486;DHT22;4781;48.776;9.200;2023-04-03T09:43:31;6.10;99.90
9486;DHT22;4781;48.776;9.200;2023-04-03T09:46:19;6.10;99.90
9486;DHT22;4781;48.776;9.200;2023-04-03T09:49:00;6.10;99.90
9486;DHT22;4781;48.776;9.200;2023-04-03T09:51:31;6.10;99.90
9486;DHT22;4781;48.776;9.200;2023-04-03T09:53:59;6.20;99.90
9486;DHT22;4781;48.776;9.200;2023-04-03T09:56:29;6.10;99.90
9486;DHT22;4781;48.776;9.200;2023-04-03T10:01:36;6.10;99.90
9486;DHT22;4781;48.776;9.200;2023-04-03T10:04:17;6.00;99.90
9486;DHT22;4781;48.776;9.200;2023-04-03T10:06:49;6.00;99.90
9486;DHT22;4781;48.776;9.200;2023-04-03T10:09:30;6.00;99.90
9486;DHT22;4781;48.776;9.200;2023-04-03T10:12:12;5.90;99.90
9486;DHT22;4781;48.776;9.200;2023-04-03T10:20:34;5.90;99.90
9486;DHT22;4781;48.776;9.200;2023-04-03T10:26:51;6.10;99.90
9486;DHT22;4781;48.776;9.200;2023-04-03T10:29:49;6.10;99.90
9486;DHT22;4781;48.776;9.200;2023-04-03T10:35:32;6.10;99.90
9486;DHT22;4781;48.776;9.200;2023-04-03T10:41:02;6.00;99.90
9486;DHT22;4781;48.776;9.200;2023-04-03T10:46:47;6.00;99.90
9486;DHT22;4781;48.776;9.200;2023-04-03T10:49:30;6.00;99.90
9486;DHT22;4781;48.776;9.200;2023-04-03T10:52:24;6.00;99.90
9486;DHT22;4781;48.776;9.200;2023-04-03T10:55:40;6.10;99.90
9486;DHT22;4781;48.776;9.200;2023-04-03T10:58:40;6.20;99.90
9486;DHT22;4781;48.776;9.200;2023-04-03T11:01:16;6.20;99.90
9486;DHT22;4781;48.776;9.200;2023-04-03T11:03:43;6.20;99.90
9486;DHT22;4781;48.776;9.200;2023-04-03T11:06:20;6.20;99.90
9486;DHT22;4781;48.776;9.200;2023-04-03T11:09:05;6.20;99.90
9486;DHT22;4781;48.776;9.200;2023-04-03T11:11:41;6.20;99.90
9486;DHT22;4781;48.776;9.200;2023-04-03T11:14:26;6.20;99.90
9486;DHT22;4781;48.776;9.200;2023-04-03T11:22:36;6.20;99.90
9486;DHT22;4781;48.776;9.200;2023-04-03T11:30:44;6.30;99.90
9486;DHT22;4781;48.776;9.200;2023-04-03T11:36:28;6.20;99.90
9486;DHT22;4781;48.776;9.200;2023-04-03T11:38:55;6.20;99.90
9486;DHT22;4781;48.776;9.200;2023-04-03T11:41:30;6.20;99.90
9486;DHT22;4781;48.776;9.200;2023-04-03T11:44:04;6.20;99.90
9486;DHT22;4781;48.776;9.200;2023-04-03T11:46:54;6.30;99.90
9486;DHT22;4781;48.776;9.200;2023-04-03T11:58:03;6.30;99.90
9486;DHT22;4781;48.776;9.200;2023-04-03T12:01:03;6.30;99.90
9486;DHT22;4781;48.776;9.200;2023-04-03T12:03:56;6.30;99.90
9486;DHT22;4781;48.776;9.200;2023-04-03T12:08:52;6.30;99.90
9486;DHT22;4781;48.776;9.200;2023-04-03T12:11:30;6.30;99.90
9486;DHT22;4781;48.776;9.200;2023-04-03T12:14:02;6.20;99.90
9486;DHT22;4781;48.776;9.200;2023-04-03T12:24:34;6.30;99.90
9486;DHT22;4781;48.776;9.200;2023-04-03T12:30:11;6.30;99.90
9486;DHT22;4781;48.776;9.200;2023-04-03T12:33:13;6.30;99.90
9486;DHT22;4781;48.776;9.200;2023-04-03T12:38:33;6.40;99.90
9486;DHT22;4781;48.776;9.200;2023-04-03T12:47:16;6.40;99.90
9486;DHT22;4781;48.776;9.200;2023-04-03T12:49:43;6.40;99.90
9486;DHT22;4781;48.776;9.200;2023-04-03T12:55:01;6.50;99.90
9486;DHT22;4781;48.776;9.200;2023-04-03T12:57:30;6.60;99.90
9486;DHT22;4781;48.776;9.200;2023-04-03T12:59:59;6.70;99.90
9486;DHT22;4781;48.776;9.200;2023-04-03T13:02:31;6.80;99.90
9486;DHT22;4781;48.776;9.200;2023-04-03T13:05:08;6.80;99.90
9486;DHT22;4781;48.776;9.200;2023-04-03T13:07:35;6.90;99.90
9486;DHT22;4781;48.776;9.200;2023-04-03T13:12:53;7.30;99.90
9486;DHT22;4781;48.776;9.200;2023-04-03T13:15:40;7.40;99.90
9486;DHT22;4781;48.776;9.200;2023-04-03T13:18:28;7.50;99.90
9486;DHT22;4781;48.776;9.200;2023-04-03T13:21:01;7.40;99.10
9486;DHT22;4781;48.776;9.200;2023-04-03T13:23:33;7.40;99.10
9486;DHT22;4781;48.776;9.200;2023-04-03T13:26:04;7.30;98.40
9486;DHT22;4781;48.776;9.200;2023-04-03T13:28:34;7.20;98.10
9486;DHT22;4781;48.776;9.200;2023-04-03T13:31:08;7.20;98.40
9486;DHT22;4781;48.776;9.200;2023-04-03T13:34:04;7.20;98.40
9486;DHT22;4781;48.776;9.200;2023-04-03T13:36:40;7.30;99.30
9486;DHT22;4781;48.776;9.200;2023-04-03T13:39:20;7.40;97.00
9486;DHT22;4781;48.776;9.200;2023-04-03T13:41:54;7.20;97.40
9486;DHT22;4781;48.776;9.200;2023-04-03T13:44:27;7.20;97.10
9486;DHT22;4781;48.776;9.200;2023-04-03T13:46:59;7.30;97.70
9486;DHT22;4781;48.776;9.200;2023-04-03T13:49:35;7.40;97.80
9486;DHT22;4781;48.776;9.200;2023-04-03T13:52:24;7.50;97.40
9486;DHT22;4781;48.776;9.200;2023-04-03T13:54:57;7.50;97.10
9486;DHT22;4781;48.776;9.200;2023-04-03T13:57:27;7.60;97.10
9486;DHT22;4781;48.776;9.200;2023-04-03T13:59:56;7.50;96.40
9486;DHT22;4781;48.776;9.200;2023-04-03T14:02:33;7.60;97.70
9486;DHT22;4781;48.776;9.200;2023-04-03T14:05:03;7.60;96.60
9486;DHT22;4781;48.776;9.200;2023-04-03T14:07:33;7.60;96.40
9486;DHT22;4781;48.776;9.200;2023-04-03T14:10:03;7.70;97.30
9486;DHT22;4781;48.776;9.200;2023-04-03T14:12:35;7.60;96.50
9486;DHT22;4781;48.776;9.200;2023-04-03T14:15:18;7.60;96.10
9486;DHT22;4781;48.776;9.200;2023-04-03T14:17:41;7.50;96.00
9486;DHT22;4781;48.776;9.200;2023-04-03T14:20:16;7.40;95.80
9486;DHT22;4781;48.776;9.200;2023-04-03T14:22:44;7.40;96.10
9486;DHT22;4781;48.776;9.200;2023-04-03T14:25:13;7.40;96.30
9486;DHT22;4781;48.776;9.200;2023-04-03T14:27:47;7.40;96.60
9486;DHT22;4781;48.776;9.200;2023-04-03T14:30:28;7.40;95.90
9486;DHT22;4781;48.776;9.200;2023-04-03T14:32:58;7.30;96.10
9486;DHT22;4781;48.776;9.200;2023-04-03T14:35:27;7.30;95.90
9486;DHT22;4781;48.776;9.200;2023-04-03T14:37:56;7.40;96.60
9486;DHT22;4781;48.776;9.200;2023-04-03T14:40:26;7.70;96.90
9486;DHT22;4781;48.776;9.200;2023-04-03T14:42:55;7.90;94.80
9486;DHT22;4781;48.776;9.200;2023-04-03T14:45:24;8.10;94.40
9486;DHT22;4781;48.776;9.200;2023-04-03T14:47:54;8.10;94.20
9486;DHT22;4781;48.776;9.200;2023-04-03T14:50:26;8.10;94.30
9486;DHT22;4781;48.776;9.200;2023-04-03T14:52:57;7.90;94.10
9486;DHT22;4781;48.776;9.200;2023-04-03T14:55:26;7.90;95.10
9486;DHT22;4781;48.776;9.200;2023-04-03T14:57:55;7.90;93.70
9486;DHT22;4781;48.776;9.200;2023-04-03T15:00:23;7.80;94.10
9486;DHT22;4781;48.776;9.200;2023-04-03T15:02:51;7.90;94.40
9486;DHT22;4781;48.776;9.200;2023-04-03T15:05:20;7.70;93.30
9486;DHT22;4781;48.776;9.200;2023-04-03T15:07:53;7.70;93.90
9486;DHT22;4781;48.776;9.200;2023-04-03T15:10:30;7.60;93.10
9486;DHT22;4781;48.776;9.200;2023-04-03T15:12:59;7.50;92.70
9486;DHT22;4781;48.776;9.200;2023-04-03T15:15:29;7.50;93.20
9486;DHT22;4781;48.776;9.200;2023-04-03T15:17:58;7.50;93.30
9486;DHT22;4781;48.776;9.200;2023-04-03T15:20:28;7.50;93.20
9486;DHT22;4781;48.776;9.200;2023-04-03T15:22:59;7.60;94.00
9486;DHT22;4781;48.776;9.200;2023-04-03T15:25:29;7.60;92.90
9486;DHT22;4781;48.776;9.200;2023-04-03T15:27:58;7.60;92.40
9486;DHT22;4781;48.776;9.200;2023-04-03T15:30:27;7.50;91.70
9486;DHT22;4781;48.776;9.200;2023-04-03T15:32:56;7.40;90.90
9486;DHT22;4781;48.776;9.200;2023-04-03T15:35:24;7.30;91.30
9486;DHT22;4781;48.776;9.200;2023-04-03T15:37:53;7.30;91.90
9486;DHT22;4781;48.776;9.200;2023-04-03T15:40:21;7.10;91.20
9486;DHT22;4781;48.776;9.200;2023-04-03T15:42:49;7.00;91.00
9486;DHT22;4781;48.776;9.200;2023-04-03T15:45:18;6.90;91.80
9486;DHT22;4781;48.776;9.200;2023-04-03T15:47:47;6.90;92.30
9486;DHT22;4781;48.776;9.200;2023-04-03T15:50:16;6.90;91.90
9486;DHT22;4781;48.776;9.200;2023-04-03T15:52:45;7.10;92.50
9486;DHT22;4781;48.776;9.200;2023-04-03T15:55:13;7.30;92.50
9486;DHT22;4781;48.776;9.200;2023-04-03T15:57:42;7.40;92.20
9486;DHT22;4781;48.776;9.200;2023-04-03T16:00:11;7.40;91.70
9486;DHT22;4781;48.776;9.200;2023-04-03T16:02:40;7.40;91.60
9486;DHT22;4781;48.776;9.200;2023-04-03T16:05:10;7.40;91.30
9486;DHT22;4781;48.776;9.200;2023-04-03T16:07:40;7.40;91.40
9486;DHT22;4781;48.776;9.200;2023-04-03T16:10:09;7.40;90.70
9486;DHT22;4781;48.776;9.200;2023-04-03T16:12:38;7.60;91.10
9486;DHT22;4781;48.776;9.200;2023-04-03T16:15:07;7.50;95.70
9486;DHT22;4781;48.776;9.200;2023-04-03T16:17:37;7.20;96.50
9486;DHT22;4781;48.776;9.200;2023-04-03T16:20:08;6.90;94.50
9486;DHT22;4781;48.776;9.200;2023-04-03T16:22:38;6.80;94.70
9486;DHT22;4781;48.776;9.200;2023-04-03T16:25:08;6.70;93.70
9486;DHT22;4781;48.776;9.200;2023-04-03T16:27:37;6.60;94.10
9486;DHT22;4781;48.776;9.200;2023-04-03T16:30:07;6.40;93.00
9486;DHT22;4781;48.776;9.200;2023-04-03T16:32:37;6.40;94.30
9486;DHT22;4781;48.776;9.200;2023-04-03T16:35:07;6.30;93.30
9486;DHT22;4781;48.776;9.200;2023-04-03T16:37:37;6.30;93.50
9486;DHT22;4781;48.776;9.200;2023-04-03T16:40:07;6.30;92.10
9486;DHT22;4781;48.776;9.200;2023-04-03T16:42:36;6.20;94.40
9486;DHT22;4781;48.776;9.200;2023-04-03T16:45:13;6.30;95.00
9486;DHT22;4781;48.776;9.200;2023-04-03T16:47:41;6.30;94.70
9486;DHT22;4781;48.776;9.200;2023-04-03T16:50:10;6.40;94.20
9486;DHT22;4781;48.776;9.200;2023-04-03T16:52:39;6.30;94.20
9486;DHT22;4781;48.776;9.200;2023-04-03T16:55:08;6.20;94.50
9486;DHT22;4781;48.776;9.200;2023-04-03T16:57:36;6.20;94.60
9486;DHT22;4781;48.776;9.200;2023-04-03T17:00:05;6.20;94.30
9486;DHT22;4781;48.776;9.200;2023-04-03T17:02:34;6.10;93.90
9486;DHT22;4781;48.776;9.200;2023-04-03T17:05:03;6.10;93.90
9486;DHT22;4781;48.776;9.200;2023-04-03T17:07:32;6.10;93.70
9486;DHT22;4781;48.776;9.200;2023-04-03T17:10:00;6.10;93.60
9486;DHT22;4781;48.776;9.200;2023-04-03T17:12:31;6.10;94.50
9486;DHT22;4781;48.776;9.200;2023-04-03T17:14:59;6.10;93.40
9486;DHT22;4781;48.776;9.200;2023-04-03T17:17:28;6.00;93.70
9486;DHT22;4781;48.776;9.200;2023-04-03T17:19:56;6.00;94.00
9486;DHT22;4781;48.776;9.200;2023-04-03T17:22:24;6.00;93.90
9486;DHT22;4781;48.776;9.200;2023-04-03T17:24:53;6.00;93.40
9486;DHT22;4781;48.776;9.200;2023-04-03T17:27:21;6.00;93.80
9486;DHT22;4781;48.776;9.200;2023-04-03T17:29:50;5.90;93.20
9486;DHT22;4781;48.776;9.200;2023-04-03T17:32:18;5.90;94.00
9486;DHT22;4781;48.776;9.200;2023-04-03T17:34:47;5.90;93.20
9486;DHT22;4781;48.776;9.200;2023-04-03T17:37:15;5.80;92.90
9486;DHT22;4781;48.776;9.200;2023-04-03T17:39:44;5.80;94.40
9486;DHT22;4781;48.776;9.200;2023-04-03T17:42:12;5.80;93.30
9486;DHT22;4781;48.776;9.200;2023-04-03T17:44:41;5.70;93.90
9486;DHT22;4781;48.776;9.200;2023-04-03T17:47:10;5.70;94.00
9486;DHT22;4781;48.776;9.200;2023-04-03T17:49:38;5.70;93.80
9486;DHT22;4781;48.776;9.200;2023-04-03T17:52:06;5.70;93.70
9486;DHT22;4781;48.776;9.200;2023-04-03T17:54:35;5.60;94.00
9486;DHT22;4781;48.776;9.200;2023-04-03T17:57:03;5.70;94.40
9486;DHT22;4781;48.776;9.200;2023-04-03T17:59:32;5.60;94.30
9486;DHT22;4781;48.776;9.200;2023-04-03T18:02:00;5.60;94.50
9486;DHT22;4781;48.776;9.200;2023-04-03T18:04:29;5.60;94.00
9486;DHT22;4781;48.776;9.200;2023-04-03T18:06:57;5.60;94.90
9486;DHT22;4781;48.776;9.200;2023-04-03T18:09:31;5.50;94.30
9486;DHT22;4781;48.776;9.200;2023-04-03T18:12:03;5.50;94.90
9486;DHT22;4781;48.776;9.200;2023-04-03T18:14:33;5.40;94.10
9486;DHT22;4781;48.776;9.200;2023-04-03T18:17:02;5.50;94.20